sensor_id;sensor_type;location;lat;lon;timestamp;P1;durP1;ratioP1;P2;durP2;ratioP2
56720;SDS011;53183;47.412;18.884;2022-12-29T00:01:42;17.77;;;8.35;;
56720;SDS011;53183;47.412;18.884;2022-12-29T00:04:11;23.15;;;9.20;;
56720;SDS011;53183;47.412;18.884;2022-12-29T00:06:42;18.15;;;7.70;;
56720;SDS011;53183;47.412;18.884;2022-12-29T00:09:10;20.20;;;8.60;;
56720;SDS011;53183;47.412;18.884;2022-12-29T00:11:39;17.50;;;7.70;;
56720;SDS011;53183;47.412;18.884;2022-12-29T00:14:08;19.50;;;8.13;;
56720;SDS011;53183;47.412;18.884;2022-12-29T00:16:55;14.52;;;7.93;;
56720;SDS011;53183;47.412;18.884;2022-12-29T00:19:23;16.23;;;8.13;;
56720;SDS011;53183;47.412;18.884;2022-12-29T00:22:10;18.00;;;8.23;;
56720;SDS011;53183;47.412;18.884;2022-12-29T00:24:58;20.12;;;9.30;;
56720;SDS011;53183;47.412;18.884;2022-12-29T00:27:32;16.05;;;7.87;;
56720;SDS011;53183;47.412;18.884;2022-12-29T00:30:21;17.75;;;7.62;;
56720;SDS011;53183;47.412;18.884;2022-12-29T00:33:15;13.25;;;6.97;;
56720;SDS011;53183;47.412;18.884;2022-12-29T00:36:12;14.70;;;7.65;;
56720;SDS011;53183;47.412;18.884;2022-12-29T00:39:07;17.12;;;7.68;;
56720;SDS011;53183;47.412;18.884;2022-12-29T00:42:02;15.73;;;7.90;;
56720;SDS011;53183;47.412;18.884;2022-12-29T00:44:52;17.50;;;7.80;;
56720;SDS011;53183;47.412;18.884;2022-12-29T00:47:19;19.70;;;8.20;;
56720;SDS011;53183;47.412;18.884;2022-12-29T00:49:46;15.35;;;7.18;;
56720;SDS011;53183;47.412;18.884;2022-12-29T00:52:14;18.35;;;7.70;;
56720;SDS011;53183;47.412;18.884;2022-12-29T00:54:41;16.02;;;7.93;;
56720;SDS011;53183;47.412;18.884;2022-12-29T00:57:11;17.02;;;7.90;;
56720;SDS011;53183;47.412;18.884;2022-12-29T00:59:40;16.27;;;7.25;;
56720;SDS011;53183;47.412;18.884;2022-12-29T01:02:09;18.02;;;7.80;;
56720;SDS011;53183;47.412;18.884;2022-12-29T01:04:37;16.52;;;7.60;;
56720;SDS011;53183;47.412;18.884;2022-12-29T01:07:04;17.75;;;7.65;;
56720;SDS011;53183;47.412;18.884;2022-12-29T01:09:31;17.27;;;7.57;;
56720;SDS011;53183;47.412;18.884;2022-12-29T01:12:18;19.52;;;7.40;;
56720;SDS011;53183;47.412;18.884;2022-12-29T01:15:06;19.70;;;7.78;;
56720;SDS011;53183;47.412;18.884;2022-12-29T01:17:36;19.50;;;8.57;;
56720;SDS011;53183;47.412;18.884;2022-12-29T01:20:03;17.52;;;7.97;;
56720;SDS011;53183;47.412;18.884;2022-12-29T01:22:31;15.48;;;7.07;;
56720;SDS011;53183;47.412;18.884;2022-12-29T01:24:59;18.15;;;8.02;;
56720;SDS011;53183;47.412;18.884;2022-12-29T01:27:27;16.80;;;8.02;;
56720;SDS011;53183;47.412;18.884;2022-12-29T01:29:54;15.45;;;8.07;;
56720;SDS011;53183;47.412;18.884;2022-12-29T01:32:21;14.07;;;7.30;;
56720;SDS011;53183;47.412;18.884;2022-12-29T01:34:49;13.43;;;7.45;;
56720;SDS011;53183;47.412;18.884;2022-12-29T01:37:17;19.52;;;8.88;;
56720;SDS011;53183;47.412;18.884;2022-12-29T01:39:44;18.10;;;8.43;;
56720;SDS011;53183;47.412;18.884;2022-12-29T01:42:14;22.98;;;8.40;;
56720;SDS011;53183;47.412;18.884;2022-12-29T01:44:49;14.85;;;7.97;;
56720;SDS011;53183;47.412;18.884;2022-12-29T01:47:25;13.07;;;7.32;;
56720;SDS011;53183;47.412;18.884;2022-12-29T01:50:07;14.38;;;7.62;;
56720;SDS011;53183;47.412;18.884;2022-12-29T01:52:38;19.30;;;8.00;;
56720;SDS011;53183;47.412;18.884;2022-12-29T01:55:10;18.52;;;7.75;;
56720;SDS011;53183;47.412;18.884;2022-12-29T01:57:46;21.12;;;8.48;;
56720;SDS011;53183;47.412;18.884;2022-12-29T02:00:16;21.42;;;9.57;;
56720;SDS011;53183;47.412;18.884;2022-12-29T02:02:47;21.73;;;9.68;;
56720;SDS011;53183;47.412;18.884;2022-12-29T02:08:11;19.48;;;8.73;;
56720;SDS011;53183;47.412;18.884;2022-12-29T02:10:40;30.00;;;11.70;;
56720;SDS011;53183;47.412;18.884;2022-12-29T02:13:09;24.65;;;9.10;;
56720;SDS011;53183;47.412;18.884;2022-12-29T02:18:48;19.00;;;9.00;;
56720;SDS011;53183;47.412;18.884;2022-12-29T02:21:24;18.05;;;9.23;;
56720;SDS011;53183;47.412;18.884;2022-12-29T02:26:53;21.70;;;9.35;;
56720;SDS011;53183;47.412;18.884;2022-12-29T02:43:51;20.48;;;9.38;;
56720;SDS011;53183;47.412;18.884;2022-12-29T02:46:49;20.85;;;8.20;;
56720;SDS011;53183;47.412;18.884;2022-12-29T02:52:07;23.65;;;8.30;;
56720;SDS011;53183;47.412;18.884;2022-12-29T02:54:41;15.35;;;7.90;;
56720;SDS011;53183;47.412;18.884;2022-12-29T02:57:32;16.05;;;8.10;;
56720;SDS011;53183;47.412;18.884;2022-12-29T03:00:00;21.00;;;8.35;;
56720;SDS011;53183;47.412;18.884;2022-12-29T03:08:24;19.50;;;8.20;;
56720;SDS011;53183;47.412;18.884;2022-12-29T03:11:03;19.17;;;8.20;;
56720;SDS011;53183;47.412;18.884;2022-12-29T03:13:56;23.75;;;8.80;;
56720;SDS011;53183;47.412;18.884;2022-12-29T03:16:46;21.08;;;10.05;;
56720;SDS011;53183;47.412;18.884;2022-12-29T03:19:20;16.95;;;7.28;;
56720;SDS011;53183;47.412;18.884;2022-12-29T03:21:55;18.17;;;8.50;;
56720;SDS011;53183;47.412;18.884;2022-12-29T03:24:47;22.58;;;7.80;;
56720;SDS011;53183;47.412;18.884;2022-12-29T03:27:21;16.83;;;8.82;;
56720;SDS011;53183;47.412;18.884;2022-12-29T03:29:53;20.95;;;9.05;;
56720;SDS011;53183;47.412;18.884;2022-12-29T03:32:32;21.08;;;9.02;;
56720;SDS011;53183;47.412;18.884;2022-12-29T03:35:03;18.42;;;8.80;;
56720;SDS011;53183;47.412;18.884;2022-12-29T03:37:37;19.45;;;9.23;;
56720;SDS011;53183;47.412;18.884;2022-12-29T03:40:17;18.42;;;8.60;;
56720;SDS011;53183;47.412;18.884;2022-12-29T03:42:47;16.80;;;8.05;;
56720;SDS011;53183;47.412;18.884;2022-12-29T03:45:15;18.75;;;8.57;;
56720;SDS011;53183;47.412;18.884;2022-12-29T03:47:44;20.73;;;8.75;;
56720;SDS011;53183;47.412;18.884;2022-12-29T03:50:12;16.55;;;8.18;;
56720;SDS011;53183;47.412;18.884;2022-12-29T03:52:40;17.65;;;8.55;;
56720;SDS011;53183;47.412;18.884;2022-12-29T03:55:08;19.45;;;9.68;;
56720;SDS011;53183;47.412;18.884;2022-12-29T03:57:37;31.65;;;12.00;;
56720;SDS011;53183;47.412;18.884;2022-12-29T04:00:05;23.20;;;10.68;;
56720;SDS011;53183;47.412;18.884;2022-12-29T04:02:40;24.50;;;9.70;;
56720;SDS011;53183;47.412;18.884;2022-12-29T04:05:09;22.17;;;9.13;;
56720;SDS011;53183;47.412;18.884;2022-12-29T04:07:36;18.83;;;9.50;;
56720;SDS011;53183;47.412;18.884;2022-12-29T04:10:04;21.55;;;9.38;;
56720;SDS011;53183;47.412;18.884;2022-12-29T04:12:33;22.85;;;9.70;;
56720;SDS011;53183;47.412;18.884;2022-12-29T04:15:01;24.48;;;9.88;;
56720;SDS011;53183;47.412;18.884;2022-12-29T04:17:29;19.60;;;9.45;;
56720;SDS011;53183;47.412;18.884;2022-12-29T04:19:57;18.10;;;8.80;;
56720;SDS011;53183;47.412;18.884;2022-12-29T04:22:44;22.17;;;10.38;;
56720;SDS011;53183;47.412;18.884;2022-12-29T04:25:13;16.40;;;8.77;;
56720;SDS011;53183;47.412;18.884;2022-12-29T04:27:41;20.17;;;9.43;;
56720;SDS011;53183;47.412;18.884;2022-12-29T04:30:11;18.02;;;9.65;;
56720;SDS011;53183;47.412;18.884;2022-12-29T04:32:40;18.45;;;9.32;;
56720;SDS011;53183;47.412;18.884;2022-12-29T04:35:08;17.27;;;8.88;;
56720;SDS011;53183;47.412;18.884;2022-12-29T04:37:35;21.67;;;9.20;;
56720;SDS011;53183;47.412;18.884;2022-12-29T04:40:03;22.60;;;10.27;;
56720;SDS011;53183;47.412;18.884;2022-12-29T04:42:30;18.92;;;9.82;;
56720;SDS011;53183;47.412;18.884;2022-12-29T04:44:58;22.67;;;9.15;;
56720;SDS011;53183;47.412;18.884;2022-12-29T04:47:29;19.50;;;8.82;;
56720;SDS011;53183;47.412;18.884;2022-12-29T04:49:56;23.27;;;9.48;;
56720;SDS011;53183;47.412;18.884;2022-12-29T04:52:24;17.98;;;9.43;;
56720;SDS011;53183;47.412;18.884;2022-12-29T04:54:53;17.98;;;9.88;;
56720;SDS011;53183;47.412;18.884;2022-12-29T04:57:20;20.73;;;9.05;;
56720;SDS011;53183;47.412;18.884;2022-12-29T04:59:51;15.00;;;8.98;;
56720;SDS011;53183;47.412;18.884;2022-12-29T05:02:19;23.40;;;9.77;;
56720;SDS011;53183;47.412;18.884;2022-12-29T05:04:47;23.92;;;10.45;;
56720;SDS011;53183;47.412;18.884;2022-12-29T05:07:15;22.02;;;9.60;;
56720;SDS011;53183;47.412;18.884;2022-12-29T05:09:44;19.98;;;8.93;;
56720;SDS011;53183;47.412;18.884;2022-12-29T05:12:12;21.30;;;9.20;;
56720;SDS011;53183;47.412;18.884;2022-12-29T05:14:41;19.20;;;8.63;;
56720;SDS011;53183;47.412;18.884;2022-12-29T05:17:09;19.02;;;9.35;;
56720;SDS011;53183;47.412;18.884;2022-12-29T05:19:36;18.65;;;9.23;;
56720;SDS011;53183;47.412;18.884;2022-12-29T05:22:05;20.95;;;9.55;;
56720;SDS011;53183;47.412;18.884;2022-12-29T05:24:33;20.10;;;10.20;;
56720;SDS011;53183;47.412;18.884;2022-12-29T05:27:00;21.45;;;10.65;;
56720;SDS011;53183;47.412;18.884;2022-12-29T05:29:29;20.42;;;10.32;;
56720;SDS011;53183;47.412;18.884;2022-12-29T05:31:57;22.67;;;10.13;;
56720;SDS011;53183;47.412;18.884;2022-12-29T05:34:24;20.50;;;10.15;;
56720;SDS011;53183;47.412;18.884;2022-12-29T05:36:51;23.60;;;9.95;;
56720;SDS011;53183;47.412;18.884;2022-12-29T05:39:19;18.33;;;9.20;;
56720;SDS011;53183;47.412;18.884;2022-12-29T05:41:49;22.35;;;10.38;;
56720;SDS011;53183;47.412;18.884;2022-12-29T05:44:18;19.77;;;10.23;;
56720;SDS011;53183;47.412;18.884;2022-12-29T05:46:45;27.83;;;10.93;;
56720;SDS011;53183;47.412;18.884;2022-12-29T05:49:14;27.95;;;10.85;;
56720;SDS011;53183;47.412;18.884;2022-12-29T05:51:41;24.77;;;10.07;;
56720;SDS011;53183;47.412;18.884;2022-12-29T05:54:09;24.65;;;10.55;;
56720;SDS011;53183;47.412;18.884;2022-12-29T05:56:37;21.92;;;11.00;;
56720;SDS011;53183;47.412;18.884;2022-12-29T05:59:04;25.85;;;10.65;;
56720;SDS011;53183;47.412;18.884;2022-12-29T06:01:32;24.17;;;10.18;;
56720;SDS011;53183;47.412;18.884;2022-12-29T06:04:02;24.30;;;10.20;;
56720;SDS011;53183;47.412;18.884;2022-12-29T06:06:29;21.85;;;10.52;;
56720;SDS011;53183;47.412;18.884;2022-12-29T06:08:57;19.20;;;9.95;;
56720;SDS011;53183;47.412;18.884;2022-12-29T06:11:24;24.52;;;12.60;;
56720;SDS011;53183;47.412;18.884;2022-12-29T06:13:52;29.75;;;12.63;;
56720;SDS011;53183;47.412;18.884;2022-12-29T06:16:19;22.20;;;10.73;;
56720;SDS011;53183;47.412;18.884;2022-12-29T06:18:49;21.73;;;10.85;;
56720;SDS011;53183;47.412;18.884;2022-12-29T06:21:16;23.67;;;12.30;;
56720;SDS011;53183;47.412;18.884;2022-12-29T06:23:43;26.95;;;12.18;;
56720;SDS011;53183;47.412;18.884;2022-12-29T06:26:10;22.92;;;11.15;;
56720;SDS011;53183;47.412;18.884;2022-12-29T06:28:37;25.80;;;11.00;;
56720;SDS011;53183;47.412;18.884;2022-12-29T06:31:05;22.08;;;12.98;;
56720;SDS011;53183;47.412;18.884;2022-12-29T06:33:37;22.85;;;10.95;;
56720;SDS011;53183;47.412;18.884;2022-12-29T06:36:05;26.27;;;12.70;;
56720;SDS011;53183;47.412;18.884;2022-12-29T06:38:32;25.70;;;11.15;;
56720;SDS011;53183;47.412;18.884;2022-12-29T06:41:02;24.08;;;10.70;;
56720;SDS011;53183;47.412;18.884;2022-12-29T06:43:32;22.83;;;10.98;;
56720;SDS011;53183;47.412;18.884;2022-12-29T06:46:00;23.75;;;12.85;;
56720;SDS011;53183;47.412;18.884;2022-12-29T06:48:28;33.25;;;12.07;;
56720;SDS011;53183;47.412;18.884;2022-12-29T06:50:55;22.73;;;11.52;;
56720;SDS011;53183;47.412;18.884;2022-12-29T06:53:22;23.23;;;11.20;;
56720;SDS011;53183;47.412;18.884;2022-12-29T06:55:49;21.17;;;12.10;;
56720;SDS011;53183;47.412;18.884;2022-12-29T06:58:17;26.35;;;13.02;;
56720;SDS011;53183;47.412;18.884;2022-12-29T07:00:44;28.40;;;13.95;;
56720;SDS011;53183;47.412;18.884;2022-12-29T07:03:11;27.95;;;13.62;;
56720;SDS011;53183;47.412;18.884;2022-12-29T07:05:39;26.75;;;13.15;;
56720;SDS011;53183;47.412;18.884;2022-12-29T07:08:06;23.85;;;13.20;;
56720;SDS011;53183;47.412;18.884;2022-12-29T07:10:34;21.17;;;12.00;;
56720;SDS011;53183;47.412;18.884;2022-12-29T07:13:01;28.35;;;13.32;;
56720;SDS011;53183;47.412;18.884;2022-12-29T07:15:28;27.17;;;14.38;;
56720;SDS011;53183;47.412;18.884;2022-12-29T07:17:56;30.60;;;14.05;;
56720;SDS011;53183;47.412;18.884;2022-12-29T07:20:23;32.38;;;14.85;;
56720;SDS011;53183;47.412;18.884;2022-12-29T07:22:53;25.73;;;12.10;;
56720;SDS011;53183;47.412;18.884;2022-12-29T07:25:20;23.48;;;11.38;;
56720;SDS011;53183;47.412;18.884;2022-12-29T07:27:48;29.20;;;13.05;;
56720;SDS011;53183;47.412;18.884;2022-12-29T07:30:15;24.65;;;12.75;;
56720;SDS011;53183;47.412;18.884;2022-12-29T07:32:43;25.73;;;12.60;;
56720;SDS011;53183;47.412;18.884;2022-12-29T07:35:10;29.35;;;14.07;;
56720;SDS011;53183;47.412;18.884;2022-12-29T07:37:37;28.17;;;13.95;;
56720;SDS011;53183;47.412;18.884;2022-12-29T07:40:05;25.55;;;12.85;;
56720;SDS011;53183;47.412;18.884;2022-12-29T07:42:32;32.03;;;13.23;;
56720;SDS011;53183;47.412;18.884;2022-12-29T07:45:00;26.10;;;12.00;;
56720;SDS011;53183;47.412;18.884;2022-12-29T07:47:29;38.72;;;14.30;;
56720;SDS011;53183;47.412;18.884;2022-12-29T07:49:56;30.25;;;13.25;;
56720;SDS011;53183;47.412;18.884;2022-12-29T07:52:23;29.63;;;14.68;;
56720;SDS011;53183;47.412;18.884;2022-12-29T07:54:51;28.80;;;12.60;;
56720;SDS011;53183;47.412;18.884;2022-12-29T07:57:18;26.70;;;13.55;;
56720;SDS011;53183;47.412;18.884;2022-12-29T07:59:45;25.98;;;13.18;;
56720;SDS011;53183;47.412;18.884;2022-12-29T08:02:12;27.15;;;13.30;;
56720;SDS011;53183;47.412;18.884;2022-12-29T08:04:39;29.83;;;13.48;;
56720;SDS011;53183;47.412;18.884;2022-12-29T08:07:06;29.12;;;14.50;;
56720;SDS011;53183;47.412;18.884;2022-12-29T08:09:33;26.73;;;13.27;;
56720;SDS011;53183;47.412;18.884;2022-12-29T08:12:01;27.15;;;13.48;;
56720;SDS011;53183;47.412;18.884;2022-12-29T08:14:28;25.83;;;13.43;;
56720;SDS011;53183;47.412;18.884;2022-12-29T08:16:55;29.35;;;13.88;;
56720;SDS011;53183;47.412;18.884;2022-12-29T08:19:22;26.80;;;13.80;;
56720;SDS011;53183;47.412;18.884;2022-12-29T08:21:49;28.38;;;13.77;;
56720;SDS011;53183;47.412;18.884;2022-12-29T08:24:17;26.67;;;13.15;;
56720;SDS011;53183;47.412;18.884;2022-12-29T08:26:45;31.37;;;15.23;;
56720;SDS011;53183;47.412;18.884;2022-12-29T08:29:12;29.33;;;12.93;;
56720;SDS011;53183;47.412;18.884;2022-12-29T08:31:39;28.95;;;14.30;;
56720;SDS011;53183;47.412;18.884;2022-12-29T08:34:06;29.70;;;14.52;;
56720;SDS011;53183;47.412;18.884;2022-12-29T08:36:33;30.85;;;14.43;;
56720;SDS011;53183;47.412;18.884;2022-12-29T08:39:00;26.17;;;14.73;;
56720;SDS011;53183;47.412;18.884;2022-12-29T08:41:28;25.58;;;14.35;;
56720;SDS011;53183;47.412;18.884;2022-12-29T08:43:55;30.88;;;14.85;;
56720;SDS011;53183;47.412;18.884;2022-12-29T08:46:22;30.12;;;14.13;;
56720;SDS011;53183;47.412;18.884;2022-12-29T08:48:49;26.35;;;13.95;;
56720;SDS011;53183;47.412;18.884;2022-12-29T08:51:16;27.95;;;14.23;;
56720;SDS011;53183;47.412;18.884;2022-12-29T08:53:51;27.58;;;14.87;;
56720;SDS011;53183;47.412;18.884;2022-12-29T08:56:19;31.37;;;16.35;;
56720;SDS011;53183;47.412;18.884;2022-12-29T08:58:47;33.40;;;15.65;;
56720;SDS011;53183;47.412;18.884;2022-12-29T09:01:16;31.15;;;15.95;;
56720;SDS011;53183;47.412;18.884;2022-12-29T09:03:44;31.65;;;16.27;;
56720;SDS011;53183;47.412;18.884;2022-12-29T09:06:32;25.40;;;13.55;;
56720;SDS011;53183;47.412;18.884;2022-12-29T09:09:06;29.55;;;14.45;;
56720;SDS011;53183;47.412;18.884;2022-12-29T09:11:33;31.75;;;14.48;;
56720;SDS011;53183;47.412;18.884;2022-12-29T09:14:00;31.35;;;14.43;;
56720;SDS011;53183;47.412;18.884;2022-12-29T09:16:28;26.87;;;14.57;;
56720;SDS011;53183;47.412;18.884;2022-12-29T09:18:56;28.67;;;14.18;;
56720;SDS011;53183;47.412;18.884;2022-12-29T09:21:23;32.53;;;14.02;;
56720;SDS011;53183;47.412;18.884;2022-12-29T09:23:50;34.03;;;14.52;;
56720;SDS011;53183;47.412;18.884;2022-12-29T09:26:18;38.00;;;15.18;;
56720;SDS011;53183;47.412;18.884;2022-12-29T09:28:45;32.30;;;15.02;;
56720;SDS011;53183;47.412;18.884;2022-12-29T09:31:12;33.45;;;14.50;;
56720;SDS011;53183;47.412;18.884;2022-12-29T09:33:40;33.17;;;14.57;;
56720;SDS011;53183;47.412;18.884;2022-12-29T09:36:07;33.60;;;15.93;;
56720;SDS011;53183;47.412;18.884;2022-12-29T09:38:35;29.40;;;14.85;;
56720;SDS011;53183;47.412;18.884;2022-12-29T09:41:06;32.90;;;14.55;;
56720;SDS011;53183;47.412;18.884;2022-12-29T09:46:25;26.42;;;14.55;;
56720;SDS011;53183;47.412;18.884;2022-12-29T09:49:02;28.25;;;15.55;;
56720;SDS011;53183;47.412;18.884;2022-12-29T09:51:59;35.08;;;15.93;;
56720;SDS011;53183;47.412;18.884;2022-12-29T09:57:47;34.40;;;15.82;;
56720;SDS011;53183;47.412;18.884;2022-12-29T10:00:27;32.53;;;16.02;;
56720;SDS011;53183;47.412;18.884;2022-12-29T10:03:10;32.67;;;15.88;;
56720;SDS011;53183;47.412;18.884;2022-12-29T10:05:46;34.25;;;17.00;;
56720;SDS011;53183;47.412;18.884;2022-12-29T10:08:26;30.45;;;15.40;;
56720;SDS011;53183;47.412;18.884;2022-12-29T10:13:43;31.87;;;17.47;;
56720;SDS011;53183;47.412;18.884;2022-12-29T10:16:15;31.00;;;16.83;;
56720;SDS011;53183;47.412;18.884;2022-12-29T10:18:50;37.95;;;18.23;;
56720;SDS011;53183;47.412;18.884;2022-12-29T10:21:36;36.33;;;18.67;;
56720;SDS011;53183;47.412;18.884;2022-12-29T10:24:06;36.03;;;17.70;;
56720;SDS011;53183;47.412;18.884;2022-12-29T10:26:38;29.95;;;16.55;;
56720;SDS011;53183;47.412;18.884;2022-12-29T10:29:30;35.70;;;17.33;;
56720;SDS011;53183;47.412;18.884;2022-12-29T10:32:02;34.15;;;17.73;;
56720;SDS011;53183;47.412;18.884;2022-12-29T10:34:42;34.65;;;15.60;;
56720;SDS011;53183;47.412;18.884;2022-12-29T10:40:00;36.42;;;16.27;;
56720;SDS011;53183;47.412;18.884;2022-12-29T10:42:42;35.25;;;17.00;;
56720;SDS011;53183;47.412;18.884;2022-12-29T10:45:14;37.00;;;16.80;;
56720;SDS011;53183;47.412;18.884;2022-12-29T10:48:03;34.80;;;17.58;;
56720;SDS011;53183;47.412;18.884;2022-12-29T10:50:58;28.63;;;15.93;;
56720;SDS011;53183;47.412;18.884;2022-12-29T10:53:43;36.28;;;17.10;;
56720;SDS011;53183;47.412;18.884;2022-12-29T10:56:32;33.78;;;16.17;;
56720;SDS011;53183;47.412;18.884;2022-12-29T10:59:19;40.50;;;17.48;;
56720;SDS011;53183;47.412;18.884;2022-12-29T11:01:56;38.95;;;17.20;;
56720;SDS011;53183;47.412;18.884;2022-12-29T11:07:16;34.75;;;16.90;;
56720;SDS011;53183;47.412;18.884;2022-12-29T11:09:52;31.37;;;17.92;;
56720;SDS011;53183;47.412;18.884;2022-12-29T11:12:25;40.03;;;17.10;;
56720;SDS011;53183;47.412;18.884;2022-12-29T11:17:47;32.95;;;17.58;;
56720;SDS011;53183;47.412;18.884;2022-12-29T11:20:26;28.35;;;16.10;;
56720;SDS011;53183;47.412;18.884;2022-12-29T11:22:56;34.60;;;17.85;;
56720;SDS011;53183;47.412;18.884;2022-12-29T11:25:24;34.60;;;17.42;;
56720;SDS011;53183;47.412;18.884;2022-12-29T11:30:29;33.50;;;17.83;;
56720;SDS011;53183;47.412;18.884;2022-12-29T11:32:58;32.97;;;16.85;;
56720;SDS011;53183;47.412;18.884;2022-12-29T11:35:36;37.60;;;17.40;;
56720;SDS011;53183;47.412;18.884;2022-12-29T11:38:20;36.47;;;18.42;;
56720;SDS011;53183;47.412;18.884;2022-12-29T11:40:52;36.78;;;18.12;;
56720;SDS011;53183;47.412;18.884;2022-12-29T11:46:12;33.20;;;18.00;;
56720;SDS011;53183;47.412;18.884;2022-12-29T11:48:43;36.67;;;18.62;;
56720;SDS011;53183;47.412;18.884;2022-12-29T11:51:13;31.27;;;17.00;;
56720;SDS011;53183;47.412;18.884;2022-12-29T11:53:53;36.20;;;18.02;;
56720;SDS011;53183;47.412;18.884;2022-12-29T11:59:34;29.92;;;16.25;;
56720;SDS011;53183;47.412;18.884;2022-12-29T12:05:30;42.10;;;18.80;;
56720;SDS011;53183;47.412;18.884;2022-12-29T12:08:08;34.03;;;17.77;;
56720;SDS011;53183;47.412;18.884;2022-12-29T12:10:48;36.28;;;18.65;;
56720;SDS011;53183;47.412;18.884;2022-12-29T12:13:29;36.38;;;19.20;;
56720;SDS011;53183;47.412;18.884;2022-12-29T12:16:21;34.67;;;18.00;;
56720;SDS011;53183;47.412;18.884;2022-12-29T12:22:02;37.30;;;18.05;;
56720;SDS011;53183;47.412;18.884;2022-12-29T12:32:44;38.78;;;19.83;;
56720;SDS011;53183;47.412;18.884;2022-12-29T12:44:29;40.97;;;19.35;;
56720;SDS011;53183;47.412;18.884;2022-12-29T13:01:18;39.67;;;20.37;;
56720;SDS011;53183;47.412;18.884;2022-12-29T13:22:28;38.85;;;20.25;;
56720;SDS011;53183;47.412;18.884;2022-12-29T13:25:14;37.88;;;20.08;;
56720;SDS011;53183;47.412;18.884;2022-12-29T13:28:14;41.28;;;20.33;;
56720;SDS011;53183;47.412;18.884;2022-12-29T13:33:47;37.05;;;18.58;;
56720;SDS011;53183;47.412;18.884;2022-12-29T13:36:29;38.85;;;20.88;;
56720;SDS011;53183;47.412;18.884;2022-12-29T13:39:15;37.38;;;20.83;;
56720;SDS011;53183;47.412;18.884;2022-12-29T13:41:53;36.55;;;20.65;;
56720;SDS011;53183;47.412;18.884;2022-12-29T13:44:23;36.58;;;19.77;;
56720;SDS011;53183;47.412;18.884;2022-12-29T13:49:49;39.22;;;18.55;;
56720;SDS011;53183;47.412;18.884;2022-12-29T14:00:59;45.30;;;21.98;;
56720;SDS011;53183;47.412;18.884;2022-12-29T14:03:44;38.55;;;20.50;;
56720;SDS011;53183;47.412;18.884;2022-12-29T14:08:47;41.67;;;21.35;;
56720;SDS011;53183;47.412;18.884;2022-12-29T14:11:15;43.97;;;21.05;;
56720;SDS011;53183;47.412;18.884;2022-12-29T14:13:45;41.78;;;20.33;;
56720;SDS011;53183;47.412;18.884;2022-12-29T14:16:31;38.80;;;20.12;;
56720;SDS011;53183;47.412;18.884;2022-12-29T14:19:19;38.80;;;20.50;;
56720;SDS011;53183;47.412;18.884;2022-12-29T14:21:54;36.88;;;21.20;;
56720;SDS011;53183;47.412;18.884;2022-12-29T14:34:48;41.78;;;20.62;;
56720;SDS011;53183;47.412;18.884;2022-12-29T14:39:58;42.05;;;20.17;;
56720;SDS011;53183;47.412;18.884;2022-12-29T14:42:49;39.90;;;20.35;;
56720;SDS011;53183;47.412;18.884;2022-12-29T14:47:46;36.60;;;19.75;;
56720;SDS011;53183;47.412;18.884;2022-12-29T14:53:05;49.22;;;22.85;;
56720;SDS011;53183;47.412;18.884;2022-12-29T14:55:43;44.00;;;20.92;;
56720;SDS011;53183;47.412;18.884;2022-12-29T15:00:59;45.60;;;24.83;;
56720;SDS011;53183;47.412;18.884;2022-12-29T15:08:37;46.45;;;24.27;;
56720;SDS011;53183;47.412;18.884;2022-12-29T15:13:50;45.05;;;22.15;;
56720;SDS011;53183;47.412;18.884;2022-12-29T15:16:21;41.58;;;22.08;;
56720;SDS011;53183;47.412;18.884;2022-12-29T15:18:56;46.17;;;22.90;;
56720;SDS011;53183;47.412;18.884;2022-12-29T15:21:27;43.53;;;23.40;;
56720;SDS011;53183;47.412;18.884;2022-12-29T15:23:57;55.42;;;25.40;;
56720;SDS011;53183;47.412;18.884;2022-12-29T15:26:36;51.08;;;23.20;;
56720;SDS011;53183;47.412;18.884;2022-12-29T15:29:27;47.05;;;23.83;;
56720;SDS011;53183;47.412;18.884;2022-12-29T15:34:43;40.78;;;22.95;;
56720;SDS011;53183;47.412;18.884;2022-12-29T15:37:19;48.63;;;26.27;;
56720;SDS011;53183;47.412;18.884;2022-12-29T15:39:54;40.12;;;22.83;;
56720;SDS011;53183;47.412;18.884;2022-12-29T15:42:25;45.75;;;24.35;;
56720;SDS011;53183;47.412;18.884;2022-12-29T15:45:14;41.80;;;21.92;;
56720;SDS011;53183;47.412;18.884;2022-12-29T15:47:43;48.67;;;22.33;;
56720;SDS011;53183;47.412;18.884;2022-12-29T15:50:29;44.67;;;21.73;;
56720;SDS011;53183;47.412;18.884;2022-12-29T15:52:58;38.22;;;21.45;;
56720;SDS011;53183;47.412;18.884;2022-12-29T15:58:04;43.28;;;22.45;;
56720;SDS011;53183;47.412;18.884;2022-12-29T16:00:54;46.78;;;22.15;;
56720;SDS011;53183;47.412;18.884;2022-12-29T16:03:27;52.08;;;23.38;;
56720;SDS011;53183;47.412;18.884;2022-12-29T16:06:09;43.65;;;22.25;;
56720;SDS011;53183;47.412;18.884;2022-12-29T16:08:58;44.17;;;22.85;;
56720;SDS011;53183;47.412;18.884;2022-12-29T16:11:30;45.78;;;21.30;;
56720;SDS011;53183;47.412;18.884;2022-12-29T16:13:59;37.70;;;20.30;;
56720;SDS011;53183;47.412;18.884;2022-12-29T16:16:31;49.65;;;22.00;;
56720;SDS011;53183;47.412;18.884;2022-12-29T16:19:06;44.83;;;22.52;;
56720;SDS011;53183;47.412;18.884;2022-12-29T16:21:42;40.70;;;20.65;;
56720;SDS011;53183;47.412;18.884;2022-12-29T16:24:14;43.75;;;20.80;;
56720;SDS011;53183;47.412;18.884;2022-12-29T16:26:46;44.10;;;21.77;;
56720;SDS011;53183;47.412;18.884;2022-12-29T16:29:20;49.47;;;21.12;;
56720;SDS011;53183;47.412;18.884;2022-12-29T16:36:57;45.63;;;22.40;;
56720;SDS011;53183;47.412;18.884;2022-12-29T16:39:35;47.60;;;20.50;;
56720;SDS011;53183;47.412;18.884;2022-12-29T16:46:06;39.33;;;20.00;;
56720;SDS011;53183;47.412;18.884;2022-12-29T16:50:46;42.20;;;20.40;;
56720;SDS011;53183;47.412;18.884;2022-12-29T16:53:20;46.20;;;21.73;;
56720;SDS011;53183;47.412;18.884;2022-12-29T16:55:52;44.42;;;20.00;;
56720;SDS011;53183;47.412;18.884;2022-12-29T16:58:27;40.20;;;19.62;;
56720;SDS011;53183;47.412;18.884;2022-12-29T17:00:58;47.88;;;21.27;;
56720;SDS011;53183;47.412;18.884;2022-12-29T17:04:04;41.08;;;20.42;;
56720;SDS011;53183;47.412;18.884;2022-12-29T17:06:24;40.88;;;21.08;;
56720;SDS011;53183;47.412;18.884;2022-12-29T17:08:51;45.25;;;20.60;;
56720;SDS011;53183;47.412;18.884;2022-12-29T17:11:23;37.60;;;18.55;;
56720;SDS011;53183;47.412;18.884;2022-12-29T17:14:19;49.47;;;22.10;;
56720;SDS011;53183;47.412;18.884;2022-12-29T17:16:52;46.80;;;20.92;;
56720;SDS011;53183;47.412;18.884;2022-12-29T17:19:28;43.85;;;20.58;;
56720;SDS011;53183;47.412;18.884;2022-12-29T17:21:57;50.45;;;21.75;;
56720;SDS011;53183;47.412;18.884;2022-12-29T17:24:25;49.40;;;22.30;;
56720;SDS011;53183;47.412;18.884;2022-12-29T17:26:55;50.33;;;23.23;;
56720;SDS011;53183;47.412;18.884;2022-12-29T17:29:45;42.67;;;21.10;;
56720;SDS011;53183;47.412;18.884;2022-12-29T17:32:12;45.60;;;21.10;;
56720;SDS011;53183;47.412;18.884;2022-12-29T17:34:40;60.90;;;25.02;;
56720;SDS011;53183;47.412;18.884;2022-12-29T17:37:28;43.67;;;20.35;;
56720;SDS011;53183;47.412;18.884;2022-12-29T17:39:58;48.03;;;21.50;;
56720;SDS011;53183;47.412;18.884;2022-12-29T17:42:26;42.58;;;22.60;;